sensor_id;sensor_type;location;lat;lon;timestamp;P1;durP1;ratioP1;P2;durP2;ratioP2
13580;SDS011;6861;46.170;7.222;2024-03-08T00:00:18;3.33;;;1.90;;
13580;SDS011;6861;46.170;7.222;2024-03-08T00:02:47;4.28;;;2.22;;
13580;SDS011;6861;46.170;7.222;2024-03-08T00:05:17;5.53;;;2.30;;
13580;SDS011;6861;46.170;7.222;2024-03-08T00:07:46;4.53;;;2.28;;
13580;SDS011;6861;46.170;7.222;2024-03-08T00:10:15;3.45;;;1.70;;
13580;SDS011;6861;46.170;7.222;2024-03-08T00:12:45;1.80;;;1.30;;
13580;SDS011;6861;46.170;7.222;2024-03-08T00:15:14;1.88;;;1.42;;
13580;SDS011;6861;46.170;7.222;2024-03-08T00:17:45;2.38;;;1.45;;
13580;SDS011;6861;46.170;7.222;2024-03-08T00:20:15;2.60;;;1.38;;
13580;SDS011;6861;46.170;7.222;2024-03-08T00:22:45;3.90;;;1.98;;
13580;SDS011;6861;46.170;7.222;2024-03-08T00:25:14;2.30;;;1.63;;
13580;SDS011;6861;46.170;7.222;2024-03-08T00:27:45;3.65;;;2.00;;
13580;SDS011;6861;46.170;7.222;2024-03-08T00:30:16;4.63;;;1.90;;
13580;SDS011;6861;46.170;7.222;2024-03-08T00:32:44;2.65;;;1.92;;
13580;SDS011;6861;46.170;7.222;2024-03-08T00:35:13;3.90;;;2.15;;
13580;SDS011;6861;46.170;7.222;2024-03-08T00:37:41;4.85;;;2.15;;
13580;SDS011;6861;46.170;7.222;2024-03-08T00:40:10;4.05;;;2.20;;
13580;SDS011;6861;46.170;7.222;2024-03-08T00:42:39;3.85;;;2.53;;
13580;SDS011;6861;46.170;7.222;2024-03-08T00:45:10;3.77;;;2.00;;
13580;SDS011;6861;46.170;7.222;2024-03-08T00:47:39;4.60;;;2.20;;
13580;SDS011;6861;46.170;7.222;2024-03-08T00:50:09;4.50;;;2.50;;
13580;SDS011;6861;46.170;7.222;2024-03-08T00:52:38;2.90;;;2.22;;
13580;SDS011;6861;46.170;7.222;2024-03-08T00:55:07;3.83;;;2.13;;
13580;SDS011;6861;46.170;7.222;2024-03-08T00:57:37;4.28;;;2.28;;
13580;SDS011;6861;46.170;7.222;2024-03-08T01:00:06;5.05;;;2.78;;
13580;SDS011;6861;46.170;7.222;2024-03-08T01:02:39;6.28;;;2.33;;
13580;SDS011;6861;46.170;7.222;2024-03-08T01:05:08;3.13;;;1.98;;
13580;SDS011;6861;46.170;7.222;2024-03-08T01:07:36;4.43;;;2.65;;
13580;SDS011;6861;46.170;7.222;2024-03-08T01:10:05;5.07;;;2.30;;
13580;SDS011;6861;46.170;7.222;2024-03-08T01:12:37;5.88;;;2.40;;
13580;SDS011;6861;46.170;7.222;2024-03-08T01:15:06;4.53;;;2.22;;
13580;SDS011;6861;46.170;7.222;2024-03-08T01:17:36;3.17;;;1.90;;
13580;SDS011;6861;46.170;7.222;2024-03-08T01:20:06;3.63;;;2.10;;
13580;SDS011;6861;46.170;7.222;2024-03-08T01:22:37;4.30;;;1.92;;
13580;SDS011;6861;46.170;7.222;2024-03-08T01:25:06;4.20;;;2.10;;
13580;SDS011;6861;46.170;7.222;2024-03-08T01:27:35;3.50;;;2.08;;
13580;SDS011;6861;46.170;7.222;2024-03-08T01:30:04;3.23;;;1.80;;
13580;SDS011;6861;46.170;7.222;2024-03-08T01:32:37;4.78;;;1.92;;
13580;SDS011;6861;46.170;7.222;2024-03-08T01:35:06;4.78;;;2.10;;
13580;SDS011;6861;46.170;7.222;2024-03-08T01:37:36;3.13;;;2.03;;
13580;SDS011;6861;46.170;7.222;2024-03-08T01:40:06;3.43;;;2.03;;
13580;SDS011;6861;46.170;7.222;2024-03-08T01:42:36;2.80;;;1.90;;
13580;SDS011;6861;46.170;7.222;2024-03-08T01:45:05;3.67;;;1.83;;
13580;SDS011;6861;46.170;7.222;2024-03-08T01:47:35;2.55;;;1.83;;
13580;SDS011;6861;46.170;7.222;2024-03-08T01:50:06;4.05;;;1.95;;
13580;SDS011;6861;46.170;7.222;2024-03-08T01:52:35;4.37;;;2.10;;
13580;SDS011;6861;46.170;7.222;2024-03-08T01:55:06;5.00;;;2.23;;
13580;SDS011;6861;46.170;7.222;2024-03-08T01:57:35;4.53;;;2.00;;
13580;SDS011;6861;46.170;7.222;2024-03-08T02:00:05;4.07;;;1.92;;
13580;SDS011;6861;46.170;7.222;2024-03-08T02:02:37;3.77;;;2.07;;
13580;SDS011;6861;46.170;7.222;2024-03-08T02:05:09;4.17;;;1.97;;
13580;SDS011;6861;46.170;7.222;2024-03-08T02:07:38;2.70;;;1.90;;
13580;SDS011;6861;46.170;7.222;2024-03-08T02:10:10;4.17;;;1.60;;
13580;SDS011;6861;46.170;7.222;2024-03-08T02:12:39;3.03;;;1.98;;
13580;SDS011;6861;46.170;7.222;2024-03-08T02:15:07;2.97;;;1.80;;
13580;SDS011;6861;46.170;7.222;2024-03-08T02:17:37;3.00;;;1.73;;
13580;SDS011;6861;46.170;7.222;2024-03-08T02:20:06;1.83;;;1.58;;
13580;SDS011;6861;46.170;7.222;2024-03-08T02:22:37;4.50;;;2.00;;
13580;SDS011;6861;46.170;7.222;2024-03-08T02:25:06;3.57;;;1.83;;
13580;SDS011;6861;46.170;7.222;2024-03-08T02:27:36;2.97;;;1.83;;
13580;SDS011;6861;46.170;7.222;2024-03-08T02:30:05;5.75;;;1.88;;
13580;SDS011;6861;46.170;7.222;2024-03-08T02:32:35;4.05;;;2.40;;
13580;SDS011;6861;46.170;7.222;2024-03-08T02:35:04;3.58;;;2.20;;
13580;SDS011;6861;46.170;7.222;2024-03-08T02:37:33;4.63;;;2.23;;
13580;SDS011;6861;46.170;7.222;2024-03-08T02:40:02;5.20;;;2.10;;
13580;SDS011;6861;46.170;7.222;2024-03-08T02:42:32;3.23;;;1.90;;
13580;SDS011;6861;46.170;7.222;2024-03-08T02:45:00;4.03;;;2.10;;
13580;SDS011;6861;46.170;7.222;2024-03-08T02:47:28;2.25;;;1.42;;
13580;SDS011;6861;46.170;7.222;2024-03-08T02:49:58;3.05;;;1.83;;
13580;SDS011;6861;46.170;7.222;2024-03-08T02:52:28;2.67;;;1.67;;
13580;SDS011;6861;46.170;7.222;2024-03-08T02:54:57;1.83;;;1.33;;
13580;SDS011;6861;46.170;7.222;2024-03-08T02:57:27;2.57;;;1.40;;
13580;SDS011;6861;46.170;7.222;2024-03-08T02:59:55;5.28;;;1.80;;
13580;SDS011;6861;46.170;7.222;2024-03-08T03:02:26;1.80;;;1.13;;
13580;SDS011;6861;46.170;7.222;2024-03-08T03:04:54;4.30;;;1.30;;
13580;SDS011;6861;46.170;7.222;2024-03-08T03:07:23;2.90;;;1.80;;
13580;SDS011;6861;46.170;7.222;2024-03-08T03:09:54;2.10;;;1.40;;
13580;SDS011;6861;46.170;7.222;2024-03-08T03:12:22;1.93;;;1.30;;
13580;SDS011;6861;46.170;7.222;2024-03-08T03:14:52;1.97;;;1.60;;
13580;SDS011;6861;46.170;7.222;2024-03-08T03:17:20;2.90;;;1.50;;
13580;SDS011;6861;46.170;7.222;2024-03-08T03:19:49;3.90;;;1.30;;
13580;SDS011;6861;46.170;7.222;2024-03-08T03:22:18;1.90;;;1.40;;
13580;SDS011;6861;46.170;7.222;2024-03-08T03:24:47;3.97;;;1.73;;
13580;SDS011;6861;46.170;7.222;2024-03-08T03:27:16;3.30;;;1.60;;
13580;SDS011;6861;46.170;7.222;2024-03-08T03:29:44;2.93;;;1.30;;
13580;SDS011;6861;46.170;7.222;2024-03-08T03:32:14;4.00;;;1.70;;
13580;SDS011;6861;46.170;7.222;2024-03-08T03:34:45;4.67;;;1.80;;
13580;SDS011;6861;46.170;7.222;2024-03-08T03:37:13;3.23;;;1.47;;
13580;SDS011;6861;46.170;7.222;2024-03-08T03:39:41;2.07;;;1.50;;
13580;SDS011;6861;46.170;7.222;2024-03-08T03:42:15;2.03;;;1.20;;
13580;SDS011;6861;46.170;7.222;2024-03-08T03:44:44;2.50;;;1.80;;
13580;SDS011;6861;46.170;7.222;2024-03-08T03:47:15;4.07;;;1.67;;
13580;SDS011;6861;46.170;7.222;2024-03-08T03:49:44;3.80;;;2.30;;
13580;SDS011;6861;46.170;7.222;2024-03-08T03:52:12;4.07;;;2.23;;
13580;SDS011;6861;46.170;7.222;2024-03-08T03:54:42;4.07;;;2.40;;
13580;SDS011;6861;46.170;7.222;2024-03-08T03:57:10;3.03;;;1.60;;
13580;SDS011;6861;46.170;7.222;2024-03-08T03:59:38;3.13;;;1.63;;
13580;SDS011;6861;46.170;7.222;2024-03-08T04:02:08;5.03;;;1.77;;
13580;SDS011;6861;46.170;7.222;2024-03-08T04:04:38;3.80;;;1.70;;
13580;SDS011;6861;46.170;7.222;2024-03-08T04:07:06;2.47;;;1.60;;
13580;SDS011;6861;46.170;7.222;2024-03-08T04:09:36;2.30;;;1.50;;
13580;SDS011;6861;46.170;7.222;2024-03-08T04:12:04;2.80;;;1.60;;
13580;SDS011;6861;46.170;7.222;2024-03-08T04:14:33;2.80;;;1.60;;
13580;SDS011;6861;46.170;7.222;2024-03-08T04:17:02;3.53;;;1.50;;
13580;SDS011;6861;46.170;7.222;2024-03-08T04:19:30;2.67;;;1.67;;
13580;SDS011;6861;46.170;7.222;2024-03-08T04:22:00;2.33;;;1.70;;
13580;SDS011;6861;46.170;7.222;2024-03-08T04:24:28;2.80;;;1.70;;
13580;SDS011;6861;46.170;7.222;2024-03-08T04:26:57;4.37;;;1.63;;
13580;SDS011;6861;46.170;7.222;2024-03-08T04:29:26;3.20;;;1.60;;
13580;SDS011;6861;46.170;7.222;2024-03-08T04:31:54;4.40;;;1.80;;
13580;SDS011;6861;46.170;7.222;2024-03-08T04:34:22;3.93;;;1.70;;
13580;SDS011;6861;46.170;7.222;2024-03-08T04:36:50;4.83;;;1.33;;
13580;SDS011;6861;46.170;7.222;2024-03-08T04:39:21;2.37;;;1.40;;
13580;SDS011;6861;46.170;7.222;2024-03-08T04:41:49;3.40;;;1.20;;
13580;SDS011;6861;46.170;7.222;2024-03-08T04:44:18;2.03;;;1.07;;
13580;SDS011;6861;46.170;7.222;2024-03-08T04:46:46;3.43;;;1.70;;
13580;SDS011;6861;46.170;7.222;2024-03-08T04:49:14;2.30;;;1.63;;
13580;SDS011;6861;46.170;7.222;2024-03-08T04:51:43;3.23;;;1.50;;
13580;SDS011;6861;46.170;7.222;2024-03-08T04:54:12;1.43;;;1.30;;
13580;SDS011;6861;46.170;7.222;2024-03-08T04:56:42;2.67;;;1.60;;
13580;SDS011;6861;46.170;7.222;2024-03-08T04:59:10;3.53;;;1.60;;
13580;SDS011;6861;46.170;7.222;2024-03-08T05:01:40;2.80;;;1.80;;
13580;SDS011;6861;46.170;7.222;2024-03-08T05:04:08;2.37;;;1.50;;
13580;SDS011;6861;46.170;7.222;2024-03-08T05:06:37;2.90;;;1.40;;
13580;SDS011;6861;46.170;7.222;2024-03-08T05:09:05;2.90;;;1.60;;
13580;SDS011;6861;46.170;7.222;2024-03-08T05:11:42;3.10;;;1.20;;
13580;SDS011;6861;46.170;7.222;2024-03-08T05:14:11;2.30;;;1.20;;
13580;SDS011;6861;46.170;7.222;2024-03-08T05:16:43;2.33;;;1.50;;
13580;SDS011;6861;46.170;7.222;2024-03-08T05:19:15;2.53;;;1.20;;
13580;SDS011;6861;46.170;7.222;2024-03-08T05:21:44;1.57;;;1.10;;
13580;SDS011;6861;46.170;7.222;2024-03-08T05:24:13;4.50;;;1.63;;
13580;SDS011;6861;46.170;7.222;2024-03-08T05:26:45;4.13;;;2.00;;
13580;SDS011;6861;46.170;7.222;2024-03-08T05:29:14;3.37;;;1.90;;
13580;SDS011;6861;46.170;7.222;2024-03-08T05:31:45;2.43;;;1.40;;
13580;SDS011;6861;46.170;7.222;2024-03-08T05:34:15;1.77;;;1.40;;
13580;SDS011;6861;46.170;7.222;2024-03-08T05:36:46;3.37;;;1.27;;
13580;SDS011;6861;46.170;7.222;2024-03-08T05:39:16;2.53;;;1.43;;
13580;SDS011;6861;46.170;7.222;2024-03-08T05:41:46;3.17;;;1.23;;
13580;SDS011;6861;46.170;7.222;2024-03-08T05:44:15;2.53;;;1.33;;
13580;SDS011;6861;46.170;7.222;2024-03-08T05:46:44;4.40;;;1.47;;
13580;SDS011;6861;46.170;7.222;2024-03-08T05:49:13;3.50;;;1.27;;
13580;SDS011;6861;46.170;7.222;2024-03-08T05:51:42;2.97;;;1.53;;
13580;SDS011;6861;46.170;7.222;2024-03-08T05:54:11;4.63;;;1.50;;
13580;SDS011;6861;46.170;7.222;2024-03-08T05:56:44;2.17;;;1.33;;
13580;SDS011;6861;46.170;7.222;2024-03-08T05:59:16;2.10;;;1.40;;
13580;SDS011;6861;46.170;7.222;2024-03-08T06:01:45;4.40;;;1.60;;
13580;SDS011;6861;46.170;7.222;2024-03-08T06:04:13;2.70;;;1.30;;
13580;SDS011;6861;46.170;7.222;2024-03-08T06:06:42;2.70;;;1.43;;
13580;SDS011;6861;46.170;7.222;2024-03-08T06:09:10;2.07;;;1.33;;
13580;SDS011;6861;46.170;7.222;2024-03-08T06:11:43;2.43;;;1.60;;
13580;SDS011;6861;46.170;7.222;2024-03-08T06:14:12;1.90;;;1.40;;
13580;SDS011;6861;46.170;7.222;2024-03-08T06:16:46;1.90;;;1.20;;
13580;SDS011;6861;46.170;7.222;2024-03-08T06:19:17;2.53;;;1.40;;
13580;SDS011;6861;46.170;7.222;2024-03-08T06:21:45;3.83;;;1.20;;
13580;SDS011;6861;46.170;7.222;2024-03-08T06:24:13;3.43;;;1.27;;
13580;SDS011;6861;46.170;7.222;2024-03-08T06:26:42;1.93;;;1.00;;
13580;SDS011;6861;46.170;7.222;2024-03-08T06:29:11;2.13;;;1.30;;
13580;SDS011;6861;46.170;7.222;2024-03-08T06:31:39;2.00;;;1.20;;
13580;SDS011;6861;46.170;7.222;2024-03-08T06:34:09;2.10;;;1.17;;
13580;SDS011;6861;46.170;7.222;2024-03-08T06:36:38;2.27;;;1.20;;
13580;SDS011;6861;46.170;7.222;2024-03-08T06:39:06;3.37;;;1.87;;
13580;SDS011;6861;46.170;7.222;2024-03-08T06:41:36;3.07;;;1.40;;
13580;SDS011;6861;46.170;7.222;2024-03-08T06:44:05;2.00;;;1.20;;
13580;SDS011;6861;46.170;7.222;2024-03-08T06:46:35;3.87;;;1.50;;
13580;SDS011;6861;46.170;7.222;2024-03-08T06:49:05;2.40;;;1.20;;
13580;SDS011;6861;46.170;7.222;2024-03-08T06:51:35;5.47;;;1.40;;
13580;SDS011;6861;46.170;7.222;2024-03-08T06:54:04;5.13;;;1.57;;
13580;SDS011;6861;46.170;7.222;2024-03-08T06:56:36;5.20;;;1.50;;
13580;SDS011;6861;46.170;7.222;2024-03-08T06:59:04;3.73;;;1.77;;
13580;SDS011;6861;46.170;7.222;2024-03-08T07:01:33;3.40;;;1.20;;
13580;SDS011;6861;46.170;7.222;2024-03-08T07:04:03;2.50;;;1.60;;
13580;SDS011;6861;46.170;7.222;2024-03-08T07:06:33;3.73;;;2.33;;
13580;SDS011;6861;46.170;7.222;2024-03-08T07:09:02;4.17;;;1.90;;
13580;SDS011;6861;46.170;7.222;2024-03-08T07:11:31;3.03;;;1.80;;
13580;SDS011;6861;46.170;7.222;2024-03-08T07:14:01;3.33;;;1.40;;
13580;SDS011;6861;46.170;7.222;2024-03-08T07:16:32;4.77;;;1.70;;
13580;SDS011;6861;46.170;7.222;2024-03-08T07:19:01;2.87;;;1.60;;
13580;SDS011;6861;46.170;7.222;2024-03-08T07:21:31;5.17;;;1.90;;
13580;SDS011;6861;46.170;7.222;2024-03-08T07:24:00;6.40;;;1.77;;
13580;SDS011;6861;46.170;7.222;2024-03-08T07:26:47;7.77;;;2.13;;
13580;SDS011;6861;46.170;7.222;2024-03-08T07:29:16;5.77;;;2.07;;
13580;SDS011;6861;46.170;7.222;2024-03-08T07:31:44;3.50;;;1.70;;
13580;SDS011;6861;46.170;7.222;2024-03-08T07:34:22;4.47;;;1.77;;
13580;SDS011;6861;46.170;7.222;2024-03-08T07:36:50;1.80;;;1.40;;
13580;SDS011;6861;46.170;7.222;2024-03-08T07:39:18;3.23;;;1.90;;
13580;SDS011;6861;46.170;7.222;2024-03-08T07:41:51;5.80;;;2.03;;
13580;SDS011;6861;46.170;7.222;2024-03-08T07:44:20;5.33;;;1.80;;
13580;SDS011;6861;46.170;7.222;2024-03-08T07:46:48;5.50;;;2.50;;
13580;SDS011;6861;46.170;7.222;2024-03-08T07:49:19;4.43;;;1.90;;
13580;SDS011;6861;46.170;7.222;2024-03-08T07:51:48;10.57;;;1.90;;
13580;SDS011;6861;46.170;7.222;2024-03-08T07:54:16;3.20;;;1.50;;
13580;SDS011;6861;46.170;7.222;2024-03-08T07:56:45;6.37;;;1.77;;
13580;SDS011;6861;46.170;7.222;2024-03-08T07:59:15;3.47;;;1.70;;
13580;SDS011;6861;46.170;7.222;2024-03-08T08:01:43;2.27;;;1.30;;
13580;SDS011;6861;46.170;7.222;2024-03-08T08:04:13;4.30;;;1.57;;
13580;SDS011;6861;46.170;7.222;2024-03-08T08:06:44;3.45;;;1.70;;
13580;SDS011;6861;46.170;7.222;2024-03-08T08:09:13;2.72;;;1.60;;
13580;SDS011;6861;46.170;7.222;2024-03-08T08:11:42;3.53;;;1.45;;
13580;SDS011;6861;46.170;7.222;2024-03-08T08:14:10;3.80;;;1.30;;
13580;SDS011;6861;46.170;7.222;2024-03-08T08:16:40;6.20;;;1.60;;
13580;SDS011;6861;46.170;7.222;2024-03-08T08:19:09;2.63;;;1.58;;
13580;SDS011;6861;46.170;7.222;2024-03-08T08:21:40;5.07;;;2.00;;
13580;SDS011;6861;46.170;7.222;2024-03-08T08:24:09;4.03;;;1.60;;
13580;SDS011;6861;46.170;7.222;2024-03-08T08:26:37;2.70;;;1.48;;
13580;SDS011;6861;46.170;7.222;2024-03-08T08:29:06;3.50;;;1.40;;
13580;SDS011;6861;46.170;7.222;2024-03-08T08:31:34;5.53;;;3.35;;
13580;SDS011;6861;46.170;7.222;2024-03-08T08:34:04;5.15;;;2.22;;
13580;SDS011;6861;46.170;7.222;2024-03-08T08:36:33;3.30;;;1.77;;
13580;SDS011;6861;46.170;7.222;2024-03-08T08:39:03;4.32;;;1.95;;
13580;SDS011;6861;46.170;7.222;2024-03-08T08:41:39;3.05;;;1.63;;
13580;SDS011;6861;46.170;7.222;2024-03-08T08:44:08;3.00;;;1.50;;
13580;SDS011;6861;46.170;7.222;2024-03-08T08:46:42;4.05;;;1.10;;
13580;SDS011;6861;46.170;7.222;2024-03-08T08:49:12;3.75;;;1.67;;
13580;SDS011;6861;46.170;7.222;2024-03-08T08:51:48;4.53;;;1.90;;
13580;SDS011;6861;46.170;7.222;2024-03-08T08:54:19;5.65;;;1.90;;
13580;SDS011;6861;46.170;7.222;2024-03-08T08:56:48;3.60;;;1.92;;
13580;SDS011;6861;46.170;7.222;2024-03-08T08:59:16;1.95;;;1.40;;
13580;SDS011;6861;46.170;7.222;2024-03-08T09:01:49;3.20;;;1.65;;
13580;SDS011;6861;46.170;7.222;2024-03-08T09:04:22;4.13;;;1.35;;
13580;SDS011;6861;46.170;7.222;2024-03-08T09:06:51;3.67;;;1.60;;
13580;SDS011;6861;46.170;7.222;2024-03-08T09:09:20;2.65;;;1.70;;
13580;SDS011;6861;46.170;7.222;2024-03-08T09:11:48;3.05;;;1.70;;
13580;SDS011;6861;46.170;7.222;2024-03-08T09:14:17;5.32;;;1.85;;
13580;SDS011;6861;46.170;7.222;2024-03-08T09:16:47;2.38;;;1.20;;
13580;SDS011;6861;46.170;7.222;2024-03-08T09:19:15;2.03;;;1.10;;
13580;SDS011;6861;46.170;7.222;2024-03-08T09:21:45;1.80;;;1.20;;
13580;SDS011;6861;46.170;7.222;2024-03-08T09:24:13;1.83;;;1.10;;
13580;SDS011;6861;46.170;7.222;2024-03-08T09:26:42;2.60;;;0.90;;
13580;SDS011;6861;46.170;7.222;2024-03-08T09:29:10;3.20;;;0.90;;
13580;SDS011;6861;46.170;7.222;2024-03-08T09:31:39;1.02;;;0.80;;
13580;SDS011;6861;46.170;7.222;2024-03-08T09:34:07;2.72;;;0.70;;
13580;SDS011;6861;46.170;7.222;2024-03-08T09:36:42;2.35;;;0.75;;
13580;SDS011;6861;46.170;7.222;2024-03-08T09:39:12;1.42;;;0.60;;
13580;SDS011;6861;46.170;7.222;2024-03-08T09:41:43;0.70;;;0.70;;
13580;SDS011;6861;46.170;7.222;2024-03-08T09:44:14;1.95;;;0.65;;
13580;SDS011;6861;46.170;7.222;2024-03-08T09:46:43;1.50;;;0.70;;
13580;SDS011;6861;46.170;7.222;2024-03-08T09:49:14;1.58;;;0.60;;
13580;SDS011;6861;46.170;7.222;2024-03-08T09:51:44;1.10;;;1.00;;
13580;SDS011;6861;46.170;7.222;2024-03-08T09:54:14;1.30;;;0.80;;
13580;SDS011;6861;46.170;7.222;2024-03-08T09:56:49;1.10;;;0.88;;
13580;SDS011;6861;46.170;7.222;2024-03-08T09:59:19;1.67;;;1.05;;
13580;SDS011;6861;46.170;7.222;2024-03-08T10:02:12;1.38;;;0.80;;
13580;SDS011;6861;46.170;7.222;2024-03-08T10:04:44;0.90;;;0.70;;
13580;SDS011;6861;46.170;7.222;2024-03-08T10:07:17;1.13;;;1.02;;
13580;SDS011;6861;46.170;7.222;2024-03-08T10:09:45;1.52;;;0.63;;
13580;SDS011;6861;46.170;7.222;2024-03-08T10:12:17;1.48;;;0.77;;
13580;SDS011;6861;46.170;7.222;2024-03-08T10:14:46;2.05;;;0.70;;
13580;SDS011;6861;46.170;7.222;2024-03-08T10:17:14;1.27;;;0.80;;
13580;SDS011;6861;46.170;7.222;2024-03-08T10:19:50;1.05;;;0.68;;
13580;SDS011;6861;46.170;7.222;2024-03-08T10:22:21;1.23;;;0.65;;
13580;SDS011;6861;46.170;7.222;2024-03-08T10:24:50;0.82;;;0.50;;
13580;SDS011;6861;46.170;7.222;2024-03-08T10:27:18;1.13;;;0.70;;
13580;SDS011;6861;46.170;7.222;2024-03-08T10:29:47;0.70;;;0.60;;
13580;SDS011;6861;46.170;7.222;2024-03-08T10:32:18;1.50;;;0.80;;
13580;SDS011;6861;46.170;7.222;2024-03-08T10:34:47;0.80;;;0.73;;
13580;SDS011;6861;46.170;7.222;2024-03-08T10:37:17;1.10;;;0.60;;
13580;SDS011;6861;46.170;7.222;2024-03-08T10:39:55;2.58;;;1.20;;
13580;SDS011;6861;46.170;7.222;2024-03-08T10:42:40;0.63;;;0.60;;
13580;SDS011;6861;46.170;7.222;2024-03-08T10:45:15;1.23;;;0.73;;
13580;SDS011;6861;46.170;7.222;2024-03-08T10:47:53;2.67;;;1.00;;
13580;SDS011;6861;46.170;7.222;2024-03-08T10:50:43;0.90;;;0.80;;
13580;SDS011;6861;46.170;7.222;2024-03-08T10:53:14;3.20;;;1.00;;
13580;SDS011;6861;46.170;7.222;2024-03-08T10:55:47;2.38;;;0.80;;
13580;SDS011;6861;46.170;7.222;2024-03-08T10:58:21;1.35;;;0.80;;
13580;SDS011;6861;46.170;7.222;2024-03-08T11:00:54;0.90;;;0.60;;
13580;SDS011;6861;46.170;7.222;2024-03-08T11:06:16;3.55;;;1.00;;
13580;SDS011;6861;46.170;7.222;2024-03-08T11:08:51;4.32;;;0.90;;
13580;SDS011;6861;46.170;7.222;2024-03-08T11:11:28;1.20;;;0.70;;
13580;SDS011;6861;46.170;7.222;2024-03-08T11:14:01;1.50;;;0.55;;
13580;SDS011;6861;46.170;7.222;2024-03-08T11:16:38;1.27;;;0.70;;
13580;SDS011;6861;46.170;7.222;2024-03-08T11:22:01;2.13;;;0.70;;
13580;SDS011;6861;46.170;7.222;2024-03-08T11:24:39;1.42;;;0.80;;
13580;SDS011;6861;46.170;7.222;2024-03-08T11:27:09;0.98;;;0.70;;
13580;SDS011;6861;46.170;7.222;2024-03-08T11:29:38;1.45;;;0.65;;
13580;SDS011;6861;46.170;7.222;2024-03-08T11:32:10;1.10;;;0.60;;
13580;SDS011;6861;46.170;7.222;2024-03-08T11:34:40;1.27;;;0.55;;
13580;SDS011;6861;46.170;7.222;2024-03-08T11:37:11;2.63;;;0.75;;
13580;SDS011;6861;46.170;7.222;2024-03-08T11:39:47;1.27;;;0.63;;
13580;SDS011;6861;46.170;7.222;2024-03-08T11:42:17;2.15;;;0.70;;
13580;SDS011;6861;46.170;7.222;2024-03-08T11:44:46;0.80;;;0.52;;
13580;SDS011;6861;46.170;7.222;2024-03-08T11:47:15;2.58;;;0.57;;
13580;SDS011;6861;46.170;7.222;2024-03-08T11:49:44;1.63;;;0.50;;
13580;SDS011;6861;46.170;7.222;2024-03-08T11:52:15;0.88;;;0.47;;
13580;SDS011;6861;46.170;7.222;2024-03-08T11:54:52;1.58;;;0.63;;
13580;SDS011;6861;46.170;7.222;2024-03-08T11:57:25;0.98;;;0.60;;
13580;SDS011;6861;46.170;7.222;2024-03-08T11:59:55;3.70;;;0.63;;
13580;SDS011;6861;46.170;7.222;2024-03-08T12:02:25;0.80;;;0.57;;
13580;SDS011;6861;46.170;7.222;2024-03-08T12:04:57;1.13;;;0.60;;
13580;SDS011;6861;46.170;7.222;2024-03-08T12:07:28;1.05;;;0.68;;
13580;SDS011;6861;46.170;7.222;2024-03-08T12:10:16;1.15;;;0.65;;
13580;SDS011;6861;46.170;7.222;2024-03-08T12:12:48;1.10;;;0.65;;
13580;SDS011;6861;46.170;7.222;2024-03-08T12:15:18;2.63;;;0.75;;
13580;SDS011;6861;46.170;7.222;2024-03-08T12:17:49;2.10;;;0.60;;
13580;SDS011;6861;46.170;7.222;2024-03-08T12:20:19;1.25;;;0.63;;
13580;SDS011;6861;46.170;7.222;2024-03-08T12:22:49;1.50;;;0.60;;
13580;SDS011;6861;46.170;7.222;2024-03-08T12:25:21;0.60;;;0.60;;
13580;SDS011;6861;46.170;7.222;2024-03-08T12:27:50;1.10;;;0.50;;
13580;SDS011;6861;46.170;7.222;2024-03-08T12:30:20;1.10;;;0.73;;
13580;SDS011;6861;46.170;7.222;2024-03-08T12:32:51;1.08;;;0.70;;
13580;SDS011;6861;46.170;7.222;2024-03-08T12:35:24;5.22;;;0.80;;
13580;SDS011;6861;46.170;7.222;2024-03-08T12:37:53;1.42;;;0.88;;
13580;SDS011;6861;46.170;7.222;2024-03-08T12:40:27;1.85;;;0.70;;
13580;SDS011;6861;46.170;7.222;2024-03-08T12:42:58;1.27;;;0.90;;
13580;SDS011;6861;46.170;7.222;2024-03-08T12:45:27;2.30;;;0.77;;
13580;SDS011;6861;46.170;7.222;2024-03-08T12:47:55;0.63;;;0.63;;
13580;SDS011;6861;46.170;7.222;2024-03-08T12:50:24;2.17;;;0.93;;
13580;SDS011;6861;46.170;7.222;2024-03-08T12:52:52;1.90;;;0.80;;
13580;SDS011;6861;46.170;7.222;2024-03-08T12:55:21;1.52;;;0.80;;
13580;SDS011;6861;46.170;7.222;2024-03-08T12:57:51;1.55;;;0.90;;
13580;SDS011;6861;46.170;7.222;2024-03-08T13:00:20;1.40;;;0.90;;
13580;SDS011;6861;46.170;7.222;2024-03-08T13:02:50;2.22;;;1.10;;
13580;SDS011;6861;46.170;7.222;2024-03-08T13:05:18;1.70;;;0.80;;
13580;SDS011;6861;46.170;7.222;2024-03-08T13:07:47;0.98;;;0.88;;
13580;SDS011;6861;46.170;7.222;2024-03-08T13:10:15;1.30;;;0.82;;
13580;SDS011;6861;46.170;7.222;2024-03-08T13:12:47;2.72;;;0.77;;
13580;SDS011;6861;46.170;7.222;2024-03-08T13:15:21;1.85;;;1.00;;
13580;SDS011;6861;46.170;7.222;2024-03-08T13:17:50;1.45;;;0.68;;
13580;SDS011;6861;46.170;7.222;2024-03-08T13:20:18;1.90;;;0.80;;
13580;SDS011;6861;46.170;7.222;2024-03-08T13:22:59;3.95;;;1.05;;
13580;SDS011;6861;46.170;7.222;2024-03-08T13:25:28;0.90;;;0.75;;
13580;SDS011;6861;46.170;7.222;2024-03-08T13:27:57;0.75;;;0.70;;
13580;SDS011;6861;46.170;7.222;2024-03-08T13:30:29;0.90;;;0.77;;
13580;SDS011;6861;46.170;7.222;2024-03-08T13:32:57;2.15;;;0.80;;
13580;SDS011;6861;46.170;7.222;2024-03-08T13:35:26;1.00;;;0.70;;
13580;SDS011;6861;46.170;7.222;2024-03-08T13:37:57;2.17;;;0.60;;
13580;SDS011;6861;46.170;7.222;2024-03-08T13:40:25;1.90;;;0.80;;
13580;SDS011;6861;46.170;7.222;2024-03-08T13:42:54;2.40;;;0.88;;
13580;SDS011;6861;46.170;7.222;2024-03-08T13:45:22;4.28;;;0.70;;
13580;SDS011;6861;46.170;7.222;2024-03-08T13:47:53;4.88;;;1.10;;
13580;SDS011;6861;46.170;7.222;2024-03-08T13:50:21;1.80;;;0.77;;
13580;SDS011;6861;46.170;7.222;2024-03-08T13:52:50;1.20;;;0.70;;
13580;SDS011;6861;46.170;7.222;2024-03-08T13:55:22;1.73;;;0.68;;
13580;SDS011;6861;46.170;7.222;2024-03-08T13:57:52;1.05;;;0.65;;
13580;SDS011;6861;46.170;7.222;2024-03-08T14:00:21;1.88;;;0.70;;
13580;SDS011;6861;46.170;7.222;2024-03-08T14:02:53;3.85;;;0.77;;
13580;SDS011;6861;46.170;7.222;2024-03-08T14:05:21;0.80;;;0.60;;
13580;SDS011;6861;46.170;7.222;2024-03-08T14:07:50;7.05;;;0.90;;
13580;SDS011;6861;46.170;7.222;2024-03-08T14:10:21;3.20;;;0.80;;
13580;SDS011;6861;46.170;7.222;2024-03-08T14:12:50;2.50;;;0.80;;
13580;SDS011;6861;46.170;7.222;2024-03-08T14:15:18;2.03;;;0.70;;
13580;SDS011;6861;46.170;7.222;2024-03-08T14:17:53;2.10;;;0.57;;
13580;SDS011;6861;46.170;7.222;2024-03-08T14:20:22;0.75;;;0.50;;
13580;SDS011;6861;46.170;7.222;2024-03-08T14:22:52;1.25;;;0.60;;
13580;SDS011;6861;46.170;7.222;2024-03-08T14:25:22;1.63;;;0.60;;
13580;SDS011;6861;46.170;7.222;2024-03-08T14:27:51;1.65;;;0.50;;
13580;SDS011;6861;46.170;7.222;2024-03-08T14:30:25;1.02;;;0.50;;
13580;SDS011;6861;46.170;7.222;2024-03-08T14:33:11;2.58;;;0.60;;
13580;SDS011;6861;46.170;7.222;2024-03-08T14:35:40;2.53;;;0.80;;
13580;SDS011;6861;46.170;7.222;2024-03-08T14:38:09;4.13;;;0.60;;
13580;SDS011;6861;46.170;7.222;2024-03-08T14:40:39;0.50;;;0.38;;
13580;SDS011;6861;46.170;7.222;2024-03-08T14:43:12;5.30;;;0.60;;
13580;SDS011;6861;46.170;7.222;2024-03-08T14:45:41;1.05;;;0.50;;
13580;SDS011;6861;46.170;7.222;2024-03-08T14:48:09;0.77;;;0.45;;
13580;SDS011;6861;46.170;7.222;2024-03-08T14:50:40;2.47;;;0.50;;
13580;SDS011;6861;46.170;7.222;2024-03-08T14:53:10;1.10;;;0.43;;
13580;SDS011;6861;46.170;7.222;2024-03-08T14:55:43;3.10;;;0.50;;
13580;SDS011;6861;46.170;7.222;2024-03-08T14:58:14;4.95;;;0.50;;
13580;SDS011;6861;46.170;7.222;2024-03-08T15:00:42;0.50;;;0.38;;
13580;SDS011;6861;46.170;7.222;2024-03-08T15:03:11;3.80;;;0.57;;
13580;SDS011;6861;46.170;7.222;2024-03-08T15:05:44;4.50;;;0.52;;
13580;SDS011;6861;46.170;7.222;2024-03-08T15:08:15;3.85;;;0.40;;
13580;SDS011;6861;46.170;7.222;2024-03-08T15:10:51;3.25;;;0.43;;
13580;SDS011;6861;46.170;7.222;2024-03-08T15:13:22;0.93;;;0.30;;
13580;SDS011;6861;46.170;7.222;2024-03-08T15:15:54;1.40;;;0.50;;
13580;SDS011;6861;46.170;7.222;2024-03-08T15:18:23;1.60;;;0.40;;
13580;SDS011;6861;46.170;7.222;2024-03-08T15:20:59;2.83;;;0.40;;
13580;SDS011;6861;46.170;7.222;2024-03-08T15:23:27;0.82;;;0.63;;